createdAt,value
2019-05-23T00:02:13.373Z,9.90
2019-05-23T00:04:49.136Z,9.80
2019-05-23T00:07:21.054Z,9.80
2019-05-23T00:09:51.378Z,9.80
2019-05-23T00:12:45.794Z,9.70
2019-05-23T00:15:25.563Z,9.70
2019-05-23T00:17:56.371Z,9.70
2019-05-23T00:20:27.868Z,9.60
2019-05-23T00:22:58.857Z,9.50
2019-05-23T00:25:30.152Z,9.40
2019-05-23T00:28:00.301Z,9.40
2019-05-23T00:30:51.795Z,9.40
2019-05-23T00:33:24.927Z,9.30
2019-05-23T00:35:55.082Z,9.30
2019-05-23T00:38:24.843Z,9.30
2019-05-23T00:40:55.204Z,9.30
2019-05-23T00:43:25.667Z,9.20
2019-05-23T00:45:57.070Z,9.20
2019-05-23T00:48:27.390Z,9.20
2019-05-23T00:50:57.073Z,9.10
2019-05-23T00:53:28.139Z,9.10
2019-05-23T00:55:59.239Z,9.10
2019-05-23T00:58:30.513Z,9.10
2019-05-23T01:01:02.533Z,9.00
2019-05-23T01:03:33.426Z,9.00
2019-05-23T01:06:03.190Z,8.90
2019-05-23T01:08:33.203Z,8.90
2019-05-23T01:11:03.884Z,8.90
2019-05-23T01:13:33.715Z,8.80
2019-05-23T01:16:04.114Z,8.70
2019-05-23T01:18:33.586Z,8.70
2019-05-23T01:21:22.054Z,8.70
2019-05-23T01:23:57.880Z,8.70
2019-05-23T01:26:27.372Z,8.70
2019-05-23T01:28:57.476Z,8.70
2019-05-23T01:31:32.450Z,8.60
2019-05-23T01:34:04.246Z,8.60
2019-05-23T01:36:35.820Z,8.60
2019-05-23T01:39:07.324Z,8.60
2019-05-23T01:41:36.901Z,8.50
2019-05-23T01:44:08.291Z,8.50
2019-05-23T01:46:38.803Z,8.50
2019-05-23T01:49:09.940Z,8.50
2019-05-23T01:51:40.400Z,8.40
2019-05-23T01:54:11.390Z,8.40
2019-05-23T01:56:41.169Z,8.30
2019-05-23T01:59:10.653Z,8.30
2019-05-23T02:01:41.702Z,8.30
2019-05-23T02:04:11.230Z,8.20
2019-05-23T02:06:40.578Z,8.20
2019-05-23T02:09:11.627Z,8.20
2019-05-23T02:11:42.044Z,8.20
2019-05-23T02:14:12.057Z,8.20
2019-05-23T02:16:42.539Z,8.20
2019-05-23T02:19:13.767Z,8.10
2019-05-23T02:21:44.636Z,8.20
2019-05-23T02:24:14.588Z,8.10
2019-05-23T02:26:44.719Z,8.10
2019-05-23T02:29:14.135Z,8.10
2019-05-23T02:31:45.186Z,8.10
2019-05-23T02:34:15.381Z,8.00
2019-05-23T02:36:46.410Z,8.00
2019-05-23T02:39:37.432Z,7.90
2019-05-23T02:42:31.046Z,7.90
2019-05-23T02:45:05.518Z,7.90
2019-05-23T02:47:45.861Z,7.90
2019-05-23T02:50:22.504Z,7.80
2019-05-23T02:52:54.291Z,7.90
2019-05-23T02:55:32.055Z,7.80
2019-05-23T02:58:10.417Z,7.80
2019-05-23T03:01:03.472Z,7.80
2019-05-23T03:03:35.287Z,7.70
2019-05-23T03:06:08.355Z,7.70
2019-05-23T03:08:37.890Z,7.70
2019-05-23T03:11:50.150Z,7.70
2019-05-23T03:14:19.930Z,7.70
2019-05-23T03:16:52.175Z,7.70
2019-05-23T03:19:44.886Z,7.60
2019-05-23T03:22:34.331Z,7.50
2019-05-23T03:25:08.835Z,7.60
2019-05-23T03:27:44.457Z,7.60
2019-05-23T03:30:19.398Z,7.60
2019-05-23T03:32:57.916Z,7.60
2019-05-23T03:35:35.713Z,7.70
2019-05-23T03:38:05.623Z,7.70
2019-05-23T03:40:36.365Z,7.80
2019-05-23T03:43:06.454Z,7.90
2019-05-23T03:45:40.235Z,7.90
2019-05-23T03:48:11.584Z,7.90
2019-05-23T03:50:41.534Z,7.90
2019-05-23T03:53:10.913Z,8.00
2019-05-23T03:55:42.275Z,8.00
2019-05-23T03:58:13.116Z,8.10
2019-05-23T04:00:49.681Z,8.10
2019-05-23T04:03:19.476Z,8.20
2019-05-23T04:05:49.234Z,8.30
2019-05-23T04:08:19.537Z,8.20
2019-05-23T04:10:51.691Z,8.30
2019-05-23T04:13:20.029Z,8.30
2019-05-23T04:15:49.446Z,8.40
2019-05-23T04:18:18.873Z,8.40
2019-05-23T04:20:48.490Z,8.50
2019-05-23T04:23:17.810Z,8.60
2019-05-23T04:25:47.172Z,8.60
2019-05-23T04:28:17.035Z,8.80
2019-05-23T04:30:46.900Z,9.00
2019-05-23T04:33:16.508Z,9.10
2019-05-23T04:35:46.272Z,9.20
2019-05-23T04:38:16.070Z,9.30
2019-05-23T04:40:45.449Z,9.40
2019-05-23T04:43:15.198Z,9.50
2019-05-23T04:45:44.817Z,9.60
2019-05-23T04:48:14.473Z,9.70
2019-05-23T04:50:43.864Z,9.90
2019-05-23T04:53:14.247Z,10.00
2019-05-23T04:55:45.453Z,10.00
2019-05-23T04:58:14.835Z,10.50
2019-05-23T05:00:44.588Z,10.80
2019-05-23T05:03:17.936Z,11.20
2019-05-23T05:05:46.994Z,11.40
2019-05-23T05:08:16.582Z,11.90
2019-05-23T05:10:47.387Z,12.30
2019-05-23T05:13:17.002Z,12.20
2019-05-23T05:15:46.359Z,12.60
2019-05-23T05:18:16.299Z,12.40
2019-05-23T05:20:46.064Z,12.80
2019-05-23T05:23:15.474Z,13.20
2019-05-23T05:25:44.793Z,13.20
2019-05-23T05:28:14.172Z,13.00
2019-05-23T05:30:43.665Z,13.20
2019-05-23T05:33:12.995Z,13.60
2019-05-23T05:35:42.947Z,12.70
2019-05-23T05:38:12.515Z,12.40
2019-05-23T05:40:41.843Z,13.30
2019-05-23T05:43:11.691Z,13.60
2019-05-23T05:45:41.054Z,13.90
2019-05-23T05:48:10.716Z,14.70
2019-05-23T05:50:40.425Z,15.10
2019-05-23T05:53:10.455Z,14.80
2019-05-23T05:55:39.918Z,14.90
2019-05-23T05:58:09.301Z,14.70
2019-05-23T06:00:57.637Z,14.20
2019-05-23T06:03:27.492Z,13.90
2019-05-23T06:06:27.916Z,14.20
2019-05-23T06:09:00.328Z,15.00
2019-05-23T06:11:29.967Z,15.30
2019-05-23T06:13:59.261Z,15.00
2019-05-23T06:16:29.123Z,15.60
2019-05-23T06:18:58.716Z,15.50
2019-05-23T06:21:30.526Z,15.70
2019-05-23T06:24:01.080Z,15.70
2019-05-23T06:26:31.158Z,16.10
2019-05-23T06:29:00.571Z,16.30
2019-05-23T06:31:31.529Z,15.80
2019-05-23T06:34:00.970Z,15.90
2019-05-23T06:36:30.568Z,16.80
2019-05-23T06:39:00.495Z,16.70
2019-05-23T06:41:29.837Z,15.90
2019-05-23T06:43:59.452Z,16.10
2019-05-23T06:46:31.041Z,16.90
2019-05-23T06:49:00.404Z,17.30
2019-05-23T06:51:30.965Z,16.90
2019-05-23T06:54:00.423Z,16.50
2019-05-23T06:56:29.684Z,16.90
2019-05-23T06:58:59.100Z,17.80
2019-05-23T07:01:28.398Z,17.70
2019-05-23T07:04:00.833Z,17.40
2019-05-23T07:06:30.213Z,17.80
2019-05-23T07:09:00.245Z,18.00
2019-05-23T07:11:29.913Z,17.80
2019-05-23T07:13:59.373Z,18.00
2019-05-23T07:16:28.774Z,18.80
2019-05-23T07:18:58.345Z,19.10
2019-05-23T07:21:28.324Z,19.20
2019-05-23T07:23:57.720Z,19.50
2019-05-23T07:26:27.307Z,18.90
2019-05-23T07:28:56.890Z,19.10
2019-05-23T07:31:26.171Z,19.50
2019-05-23T07:34:01.965Z,19.90
2019-05-23T07:36:27.021Z,19.90
2019-05-23T07:38:58.409Z,20.10
2019-05-23T07:41:27.765Z,20.30
2019-05-23T07:43:57.102Z,20.20
2019-05-23T07:46:26.480Z,19.70
2019-05-23T07:48:55.969Z,20.20
2019-05-23T07:51:25.451Z,20.50
2019-05-23T07:54:26.191Z,20.70
2019-05-23T07:56:56.266Z,20.50
2019-05-23T07:59:25.797Z,20.60
2019-05-23T08:02:05.732Z,20.90
2019-05-23T08:04:35.066Z,21.40
2019-05-23T08:07:05.037Z,20.50
2019-05-23T08:09:34.421Z,21.10
2019-05-23T08:12:03.828Z,21.30
2019-05-23T08:14:33.876Z,21.70
2019-05-23T08:17:05.250Z,22.10
2019-05-23T08:19:49.215Z,22.50
2019-05-23T08:22:07.137Z,22.20
2019-05-23T08:24:36.555Z,22.10
2019-05-23T08:27:07.527Z,22.20
2019-05-23T08:29:37.518Z,22.60
2019-05-23T08:32:07.781Z,22.50
2019-05-23T08:34:42.394Z,22.70
2019-05-23T08:37:11.535Z,23.20
2019-05-23T08:39:41.711Z,23.50
2019-05-23T08:42:12.266Z,22.50
2019-05-23T08:44:42.307Z,22.50
2019-05-23T08:47:11.764Z,23.90
2019-05-23T08:49:41.667Z,23.40
2019-05-23T08:52:11.004Z,22.80
2019-05-23T08:54:40.416Z,23.50
2019-05-23T08:57:11.351Z,23.50
2019-05-23T08:59:40.827Z,24.00
2019-05-23T09:02:11.892Z,24.00
2019-05-23T09:05:01.376Z,23.80
2019-05-23T09:07:13.482Z,23.80
2019-05-23T09:09:43.802Z,23.00
2019-05-23T09:12:13.575Z,23.30
2019-05-23T09:14:42.995Z,23.30
2019-05-23T09:17:12.889Z,23.30
2019-05-23T09:19:42.246Z,23.50
2019-05-23T09:22:11.855Z,23.60
2019-05-23T09:24:41.303Z,24.10
2019-05-23T09:27:11.267Z,24.60
2019-05-23T09:29:40.887Z,22.60
2019-05-23T09:32:10.474Z,24.70
2019-05-23T09:34:39.823Z,23.60
2019-05-23T09:37:09.443Z,21.20
2019-05-23T09:39:40.555Z,22.60
2019-05-23T09:42:12.141Z,23.60
2019-05-23T09:44:40.984Z,25.30
2019-05-23T09:47:10.373Z,24.70
2019-05-23T09:49:39.764Z,24.00
2019-05-23T09:52:11.100Z,22.50
2019-05-23T09:54:40.567Z,24.30
2019-05-23T09:57:09.954Z,24.50
2019-05-23T09:59:39.323Z,24.40
2019-05-23T10:02:08.790Z,24.90
2019-05-23T10:04:38.162Z,25.00
2019-05-23T10:07:07.594Z,24.80
2019-05-23T10:09:36.900Z,23.70
2019-05-23T10:12:06.239Z,22.60
2019-05-23T10:14:36.788Z,23.70
2019-05-23T10:17:06.083Z,24.30
2019-05-23T10:19:35.618Z,25.10
2019-05-23T10:22:06.731Z,25.70
2019-05-23T10:24:39.879Z,26.10
2019-05-23T10:27:10.772Z,26.10
2019-05-23T10:29:40.176Z,25.70
2019-05-23T10:32:11.984Z,25.70
2019-05-23T10:34:41.479Z,26.10
2019-05-23T10:37:12.721Z,26.10
2019-05-23T10:39:46.503Z,25.10
2019-05-23T10:42:15.961Z,25.90
2019-05-23T10:44:45.359Z,26.30
2019-05-23T10:47:14.934Z,24.80
2019-05-23T10:49:44.652Z,25.80
2019-05-23T10:52:14.114Z,26.10
2019-05-23T10:54:43.500Z,26.10
2019-05-23T10:57:12.932Z,26.70
2019-05-23T10:59:42.304Z,26.80
2019-05-23T11:02:12.710Z,26.60
2019-05-23T11:04:42.347Z,26.50
2019-05-23T11:07:13.028Z,25.50
2019-05-23T11:09:43.225Z,26.60
2019-05-23T11:12:12.631Z,26.70
2019-05-23T11:14:42.096Z,27.30
2019-05-23T11:17:12.067Z,25.10
2019-05-23T11:19:41.896Z,24.20
2019-05-23T11:22:11.691Z,25.00
2019-05-23T11:24:41.306Z,24.40
2019-05-23T11:27:12.982Z,25.40
2019-05-23T11:29:42.485Z,26.20
2019-05-23T11:32:12.901Z,25.60
2019-05-23T11:34:42.400Z,25.20
2019-05-23T11:37:12.099Z,26.50
2019-05-23T11:39:49.736Z,27.30
2019-05-23T11:42:12.815Z,27.30
2019-05-23T11:44:42.176Z,25.70
2019-05-23T11:47:12.383Z,26.00
2019-05-23T11:49:43.675Z,27.60
2019-05-23T11:52:14.721Z,25.50
2019-05-23T11:54:44.327Z,26.50
2019-05-23T11:57:13.723Z,25.40
2019-05-23T11:59:43.298Z,26.80
2019-05-23T12:02:24.996Z,27.70
2019-05-23T12:04:56.074Z,27.30
2019-05-23T12:07:27.471Z,26.70
2019-05-23T12:09:56.816Z,26.80
2019-05-23T12:12:26.707Z,26.70
2019-05-23T12:14:57.168Z,26.90
2019-05-23T12:17:29.574Z,26.60
2019-05-23T12:19:59.072Z,26.50
2019-05-23T12:22:29.530Z,25.10
2019-05-23T12:24:59.000Z,27.00
2019-05-23T12:27:28.462Z,27.50
2019-05-23T12:29:57.935Z,27.40
2019-05-23T12:32:27.600Z,27.90
2019-05-23T12:35:10.628Z,27.60
2019-05-23T12:37:28.048Z,27.80
2019-05-23T12:39:57.911Z,27.50
2019-05-23T12:42:32.137Z,27.20
2019-05-23T12:45:01.744Z,27.20
2019-05-23T12:47:46.737Z,27.80
2019-05-23T12:50:19.522Z,27.20
2019-05-23T12:52:49.055Z,25.10
2019-05-23T12:55:18.402Z,26.80
2019-05-23T12:57:47.843Z,23.70
2019-05-23T13:00:35.153Z,24.10
2019-05-23T13:03:06.050Z,25.90
2019-05-23T13:05:36.359Z,25.80
2019-05-23T13:08:06.367Z,27.70
2019-05-23T13:10:35.902Z,27.00
2019-05-23T13:13:05.483Z,25.80
2019-05-23T13:15:36.480Z,26.30
2019-05-23T13:18:06.080Z,25.40
2019-05-23T13:20:35.505Z,25.60
2019-05-23T13:23:05.094Z,27.00
2019-05-23T13:25:34.444Z,27.60
2019-05-23T13:28:03.813Z,26.70
2019-05-23T13:30:33.277Z,28.00
2019-05-23T13:33:03.821Z,27.30
2019-05-23T13:35:34.271Z,27.70
2019-05-23T13:38:03.637Z,27.90
2019-05-23T13:40:33.124Z,27.60
2019-05-23T13:43:08.278Z,27.60
2019-05-23T13:45:35.646Z,26.90
2019-05-23T13:48:05.421Z,27.20
2019-05-23T13:50:35.556Z,27.60
2019-05-23T13:53:06.442Z,27.90
2019-05-23T13:55:37.103Z,26.50
2019-05-23T13:58:09.576Z,25.90
2019-05-23T14:00:39.100Z,25.70
2019-05-23T14:03:08.396Z,26.40
2019-05-23T14:05:37.992Z,26.90
2019-05-23T14:08:12.725Z,26.90
2019-05-23T14:10:39.604Z,26.90
2019-05-23T14:13:08.987Z,26.80
2019-05-23T14:15:41.604Z,27.10
2019-05-23T14:18:11.019Z,25.70
2019-05-23T14:20:40.553Z,25.50
2019-05-23T14:23:17.813Z,26.70
2019-05-23T14:25:47.205Z,27.60
2019-05-23T14:28:16.881Z,27.50
2019-05-23T14:31:14.125Z,26.60
2019-05-23T14:34:04.681Z,25.80
2019-05-23T14:36:47.463Z,25.10
2019-05-23T14:39:45.005Z,26.00
2019-05-23T14:42:28.859Z,26.20
2019-05-23T14:44:58.583Z,26.70
2019-05-23T14:47:40.483Z,27.00
2019-05-23T14:50:37.991Z,27.40
2019-05-23T14:53:09.751Z,26.60
2019-05-23T14:55:39.180Z,26.40
2019-05-23T14:58:08.565Z,27.10
2019-05-23T15:00:38.679Z,27.40
2019-05-23T15:03:08.039Z,27.00
2019-05-23T15:05:37.767Z,26.70
2019-05-23T15:08:07.518Z,27.10
2019-05-23T15:10:36.852Z,26.50
2019-05-23T15:13:06.226Z,26.80
2019-05-23T15:15:35.630Z,26.30
2019-05-23T15:18:05.288Z,25.80
2019-05-23T15:20:34.749Z,26.50
2019-05-23T15:23:04.250Z,26.20
2019-05-23T15:25:33.648Z,26.60
2019-05-23T15:28:03.276Z,26.00
2019-05-23T15:30:32.651Z,26.30
2019-05-23T15:33:01.939Z,26.50
2019-05-23T15:35:32.325Z,26.90
2019-05-23T15:38:01.723Z,26.90
2019-05-23T15:40:31.247Z,26.80
2019-05-23T15:43:00.610Z,26.70
2019-05-23T15:45:31.813Z,26.50
2019-05-23T15:48:01.634Z,26.30
2019-05-23T15:50:36.614Z,26.00
2019-05-23T15:53:12.508Z,26.20
2019-05-23T15:56:26.884Z,26.30
2019-05-23T15:58:49.039Z,26.30
2019-05-23T16:01:33.835Z,25.90
2019-05-23T16:04:06.864Z,24.90
2019-05-23T16:06:37.607Z,24.50
2019-05-23T16:09:27.622Z,23.30
2019-05-23T16:11:42.945Z,24.70
2019-05-23T16:14:12.413Z,24.80
2019-05-23T16:16:41.666Z,25.40
2019-05-23T16:19:12.634Z,25.50
2019-05-23T16:21:42.198Z,25.40
2019-05-23T16:24:12.084Z,25.40
2019-05-23T16:26:41.436Z,25.50
2019-05-23T16:29:12.465Z,25.30
2019-05-23T16:31:41.861Z,25.30
2019-05-23T16:34:11.227Z,25.10
2019-05-23T16:36:40.793Z,25.10
2019-05-23T16:39:10.256Z,24.90
2019-05-23T16:41:39.608Z,25.00
2019-05-23T16:44:09.308Z,24.90
2019-05-23T16:46:38.766Z,24.80
2019-05-23T16:49:08.101Z,24.70
2019-05-23T16:51:37.474Z,24.80
2019-05-23T16:54:07.385Z,24.60
2019-05-23T16:56:55.832Z,24.70
2019-05-23T16:59:48.366Z,24.60
2019-05-23T17:02:37.100Z,24.60
2019-05-23T17:05:34.885Z,24.60
2019-05-23T17:08:21.594Z,24.60
2019-05-23T17:11:09.919Z,24.40
2019-05-23T17:13:52.550Z,24.20
2019-05-23T17:16:40.872Z,24.20
2019-05-23T17:19:15.816Z,24.40
2019-05-23T17:22:13.216Z,24.30
2019-05-23T17:25:01.706Z,24.20
2019-05-23T17:27:53.318Z,24.20
2019-05-23T17:30:40.791Z,24.10
2019-05-23T17:33:11.265Z,23.90
2019-05-23T17:35:40.962Z,23.90
2019-05-23T17:38:10.343Z,23.80
2019-05-23T17:40:39.712Z,23.70
2019-05-23T17:43:10.781Z,23.70
2019-05-23T17:45:40.733Z,23.70
2019-05-23T17:48:10.124Z,23.60
2019-05-23T17:50:39.510Z,23.50
2019-05-23T17:53:08.886Z,23.40
2019-05-23T17:55:39.199Z,23.20
2019-05-23T17:58:11.673Z,23.20
2019-05-23T18:00:43.256Z,23.20
2019-05-23T18:03:12.743Z,23.10
2019-05-23T18:05:45.360Z,23.10
2019-05-23T18:08:15.057Z,23.00
2019-05-23T18:10:46.126Z,22.90
2019-05-23T18:13:16.315Z,22.90
2019-05-23T18:15:45.898Z,22.80
2019-05-23T18:18:16.155Z,22.80
2019-05-23T18:20:45.930Z,22.70
2019-05-23T18:23:15.893Z,22.60
2019-05-23T18:25:45.496Z,22.50
2019-05-23T18:28:15.275Z,22.40
2019-05-23T18:31:11.576Z,22.40
2019-05-23T18:33:42.891Z,22.30
2019-05-23T18:36:12.381Z,22.20
2019-05-23T18:38:41.754Z,21.90
2019-05-23T18:41:11.721Z,21.20
2019-05-23T18:43:41.889Z,20.40
2019-05-23T18:46:16.731Z,20.00
2019-05-23T18:48:46.336Z,20.20
2019-05-23T18:51:15.977Z,19.80
2019-05-23T18:53:45.431Z,20.10
2019-05-23T18:56:15.709Z,20.50
2019-05-23T18:58:45.194Z,20.90
2019-05-23T19:01:17.762Z,21.00
2019-05-23T19:03:47.236Z,21.00
2019-05-23T19:06:16.651Z,20.90
2019-05-23T19:08:46.135Z,20.70
2019-05-23T19:11:20.748Z,20.20
2019-05-23T19:13:46.591Z,19.50
2019-05-23T19:16:15.968Z,19.00
2019-05-23T19:18:45.840Z,18.90
2019-05-23T19:21:15.780Z,19.20
2019-05-23T19:23:45.214Z,19.60
2019-05-23T19:26:14.915Z,19.80
2019-05-23T19:28:44.567Z,19.80
2019-05-23T19:31:14.589Z,19.70
2019-05-23T19:33:44.040Z,19.30
2019-05-23T19:36:14.298Z,19.30
2019-05-23T19:38:43.721Z,19.40
2019-05-23T19:41:14.096Z,19.40
2019-05-23T19:43:43.548Z,19.30
2019-05-23T19:46:14.706Z,19.30
2019-05-23T19:48:44.984Z,19.20
2019-05-23T19:51:15.954Z,19.10
2019-05-23T19:53:47.288Z,19.00
2019-05-23T19:56:16.773Z,18.70
2019-05-23T19:58:46.064Z,18.50
2019-05-23T20:01:15.573Z,18.60
2019-05-23T20:03:45.300Z,18.50
2019-05-23T20:06:14.773Z,18.50
2019-05-23T20:08:45.473Z,18.40
2019-05-23T20:11:14.952Z,18.40
2019-05-23T20:13:47.145Z,18.20
2019-05-23T20:16:16.543Z,18.10
2019-05-23T20:18:46.423Z,18.00
2019-05-23T20:21:17.112Z,17.80
2019-05-23T20:23:46.512Z,17.40
2019-05-23T20:26:16.203Z,17.30
2019-05-23T20:28:45.583Z,17.30
2019-05-23T20:31:16.645Z,17.20
2019-05-23T20:33:45.981Z,17.10
2019-05-23T20:36:15.843Z,17.00
2019-05-23T20:38:45.501Z,16.80
2019-05-23T20:41:14.888Z,16.80
2019-05-23T20:43:44.360Z,16.80
2019-05-23T20:46:13.739Z,16.60
2019-05-23T20:48:43.211Z,16.60
2019-05-23T20:51:12.710Z,16.80
2019-05-23T20:53:42.757Z,16.60
2019-05-23T20:56:14.155Z,16.40
2019-05-23T20:58:48.826Z,16.40
2019-05-23T21:01:30.744Z,16.50
2019-05-23T21:04:04.827Z,16.40
2019-05-23T21:06:34.336Z,16.40
2019-05-23T21:09:05.231Z,16.30
2019-05-23T21:11:34.702Z,16.20
2019-05-23T21:14:04.485Z,16.10
2019-05-23T21:16:33.910Z,16.00
2019-05-23T21:19:03.248Z,15.90
2019-05-23T21:21:32.627Z,15.80
2019-05-23T21:24:02.694Z,15.80
2019-05-23T21:26:32.198Z,15.60
2019-05-23T21:29:01.611Z,15.50
2019-05-23T21:31:31.015Z,15.50
2019-05-23T21:34:00.707Z,15.50
2019-05-23T21:36:30.316Z,15.50
2019-05-23T21:38:59.635Z,15.30
2019-05-23T21:41:29.015Z,15.30
2019-05-23T21:43:58.495Z,15.30
2019-05-23T21:46:27.831Z,15.20
2019-05-23T21:48:57.232Z,15.00
2019-05-23T21:51:26.604Z,15.00
2019-05-23T21:53:55.954Z,14.90
2019-05-23T21:56:25.312Z,14.70
2019-05-23T21:58:54.610Z,14.80
2019-05-23T22:01:42.213Z,14.80
2019-05-23T22:04:24.151Z,14.80
2019-05-23T22:06:58.455Z,14.80
2019-05-23T22:09:27.859Z,14.20
2019-05-23T22:11:57.495Z,13.60
2019-05-23T22:14:26.817Z,13.50
2019-05-23T22:16:56.324Z,13.90
2019-05-23T22:19:27.211Z,14.00
2019-05-23T22:21:56.561Z,14.10
2019-05-23T22:24:26.559Z,14.20
2019-05-23T22:26:56.110Z,14.20
2019-05-23T22:29:25.508Z,14.20
2019-05-23T22:31:56.466Z,14.20
2019-05-23T22:34:43.967Z,14.00
2019-05-23T22:37:20.505Z,14.00
2019-05-23T22:39:49.842Z,13.80
2019-05-23T22:42:20.288Z,13.80
2019-05-23T22:44:49.941Z,13.80
2019-05-23T22:47:19.285Z,13.90
2019-05-23T22:49:48.579Z,13.90
2019-05-23T22:52:17.919Z,13.60
2019-05-23T22:54:47.323Z,13.60
2019-05-23T22:57:16.729Z,13.70
2019-05-23T22:59:46.187Z,13.60
2019-05-23T23:02:17.468Z,13.40
2019-05-23T23:04:46.922Z,13.40
2019-05-23T23:07:16.687Z,13.30
2019-05-23T23:09:46.131Z,13.40
2019-05-23T23:12:15.547Z,13.30
2019-05-23T23:14:44.968Z,13.20
2019-05-23T23:17:14.652Z,13.20
2019-05-23T23:19:43.996Z,13.20
2019-05-23T23:22:13.461Z,13.10
2019-05-23T23:24:42.756Z,13.10
2019-05-23T23:27:12.080Z,13.00
2019-05-23T23:29:41.718Z,13.00
2019-05-23T23:32:11.273Z,13.00
2019-05-23T23:34:40.655Z,13.10
2019-05-23T23:37:10.078Z,13.10
2019-05-23T23:39:39.445Z,12.90
2019-05-23T23:42:09.422Z,12.90
2019-05-23T23:44:39.399Z,12.90
2019-05-23T23:47:26.497Z,12.80
2019-05-23T23:50:13.771Z,12.80
2019-05-23T23:53:00.784Z,12.80
2019-05-23T23:56:06.903Z,12.70
2019-05-23T23:58:35.622Z,12.70
